createdAt,value
2022-12-24T00:00:13.000Z,8.399999618530273
2022-12-24T00:00:28.000Z,8.5
2022-12-24T00:00:43.000Z,8.5
2022-12-24T00:00:58.000Z,8.399999618530273
2022-12-24T00:01:13.000Z,8.399999618530273
2022-12-24T00:01:28.000Z,8.399999618530273
2022-12-24T00:01:43.000Z,8.300000190734863
2022-12-24T00:01:58.000Z,8.399999618530273
2022-12-24T00:02:13.000Z,8.399999618530273
2022-12-24T00:02:29.000Z,8.399999618530273
2022-12-24T00:02:43.000Z,8.399999618530273
2022-12-24T00:02:58.000Z,8.399999618530273
2022-12-24T00:03:13.000Z,8.399999618530273
2022-12-24T00:03:28.000Z,8.399999618530273
2022-12-24T00:03:43.000Z,8.399999618530273
2022-12-24T00:03:58.000Z,8.300000190734863
2022-12-24T00:04:13.000Z,8.199999809265137
2022-12-24T00:04:28.000Z,8.300000190734863
2022-12-24T00:04:43.000Z,8.300000190734863
2022-12-24T00:04:58.000Z,8.199999809265137
2022-12-24T00:05:13.000Z,8.199999809265137
2022-12-24T00:05:28.000Z,8.199999809265137
2022-12-24T00:05:43.000Z,8.300000190734863
2022-12-24T00:05:58.000Z,8.300000190734863
2022-12-24T00:06:13.000Z,8.300000190734863
2022-12-24T00:06:28.000Z,8.300000190734863
2022-12-24T00:06:43.000Z,8.300000190734863
2022-12-24T00:06:58.000Z,8.300000190734863
2022-12-24T00:07:13.000Z,8.300000190734863
2022-12-24T00:07:28.000Z,8.300000190734863
2022-12-24T00:07:43.000Z,8.300000190734863
2022-12-24T00:07:58.000Z,8.399999618530273
2022-12-24T00:08:13.000Z,8.399999618530273
2022-12-24T00:08:28.000Z,8.300000190734863
2022-12-24T00:08:44.000Z,8.399999618530273
2022-12-24T00:08:58.000Z,8.399999618530273
2022-12-24T00:09:13.000Z,8.399999618530273
2022-12-24T00:09:28.000Z,8.399999618530273
2022-12-24T00:09:43.000Z,8.399999618530273
2022-12-24T00:09:58.000Z,8.399999618530273
2022-12-24T00:10:13.000Z,8.399999618530273
2022-12-24T00:10:28.000Z,8.399999618530273
2022-12-24T00:10:43.000Z,8.399999618530273
2022-12-24T00:10:58.000Z,8.399999618530273
2022-12-24T00:11:13.000Z,8.399999618530273
2022-12-24T00:11:28.000Z,8.399999618530273
2022-12-24T00:11:43.000Z,8.399999618530273
2022-12-24T00:11:58.000Z,8.399999618530273
2022-12-24T00:12:13.000Z,8.399999618530273
2022-12-24T00:12:28.000Z,8.399999618530273
2022-12-24T00:12:43.000Z,8.399999618530273
2022-12-24T00:12:58.000Z,8.399999618530273
2022-12-24T00:13:13.000Z,8.5
2022-12-24T00:13:28.000Z,8.399999618530273
2022-12-24T00:13:43.000Z,8.399999618530273
2022-12-24T00:13:58.000Z,8.399999618530273
2022-12-24T00:14:13.000Z,8.399999618530273
2022-12-24T00:14:28.000Z,8.399999618530273
2022-12-24T00:14:43.000Z,8.399999618530273
2022-12-24T00:14:58.000Z,8.399999618530273
2022-12-24T00:15:13.000Z,8.5
2022-12-24T00:15:28.000Z,8.5
2022-12-24T00:15:43.000Z,8.5
2022-12-24T00:15:58.000Z,8.5
2022-12-24T00:16:13.000Z,8.5
2022-12-24T00:16:28.000Z,8.600000381469727
2022-12-24T00:16:43.000Z,8.600000381469727
2022-12-24T00:16:58.000Z,8.600000381469727
2022-12-24T00:17:13.000Z,8.600000381469727
2022-12-24T00:17:28.000Z,8.600000381469727
2022-12-24T00:17:43.000Z,8.699999809265137
2022-12-24T00:17:58.000Z,8.699999809265137
2022-12-24T00:18:13.000Z,8.699999809265137
2022-12-24T00:18:28.000Z,8.699999809265137
2022-12-24T00:18:43.000Z,8.800000190734863
2022-12-24T00:18:58.000Z,8.800000190734863
2022-12-24T00:19:13.000Z,8.800000190734863
2022-12-24T00:19:28.000Z,8.800000190734863
2022-12-24T00:19:43.000Z,8.800000190734863
2022-12-24T00:19:58.000Z,8.800000190734863
2022-12-24T00:20:13.000Z,8.800000190734863
2022-12-24T00:20:28.000Z,8.899999618530273
2022-12-24T00:20:43.000Z,8.899999618530273
2022-12-24T00:20:58.000Z,8.899999618530273
2022-12-24T00:21:13.000Z,9.0
2022-12-24T00:21:28.000Z,9.0
2022-12-24T00:21:43.000Z,9.0
2022-12-24T00:21:58.000Z,9.0
2022-12-24T00:22:13.000Z,9.0
2022-12-24T00:22:28.000Z,9.100000381469727
2022-12-24T00:22:43.000Z,9.100000381469727
2022-12-24T00:22:58.000Z,9.100000381469727
2022-12-24T00:23:13.000Z,9.100000381469727
2022-12-24T00:23:28.000Z,9.100000381469727
2022-12-24T00:23:43.000Z,9.199999809265137
2022-12-24T00:23:58.000Z,9.199999809265137
2022-12-24T00:24:13.000Z,9.100000381469727
2022-12-24T00:24:28.000Z,9.199999809265137
2022-12-24T00:24:43.000Z,9.199999809265137
2022-12-24T00:24:58.000Z,9.300000190734863
2022-12-24T00:25:13.000Z,9.300000190734863
2022-12-24T00:25:28.000Z,9.300000190734863
2022-12-24T00:25:43.000Z,9.399999618530273
2022-12-24T00:25:58.000Z,9.399999618530273
2022-12-24T00:26:13.000Z,9.5
2022-12-24T00:26:28.000Z,9.600000381469727
2022-12-24T00:26:43.000Z,9.699999809265137
2022-12-24T00:26:58.000Z,9.699999809265137
2022-12-24T00:27:13.000Z,9.699999809265137
2022-12-24T00:27:28.000Z,9.800000190734863
2022-12-24T00:27:43.000Z,9.800000190734863
2022-12-24T00:27:58.000Z,9.800000190734863
2022-12-24T00:28:13.000Z,9.899999618530273
2022-12-24T00:28:28.000Z,9.899999618530273
2022-12-24T00:28:43.000Z,9.899999618530273
2022-12-24T00:28:58.000Z,10.0
2022-12-24T00:29:13.000Z,10.0
2022-12-24T00:29:28.000Z,10.0
2022-12-24T00:29:43.000Z,10.0
2022-12-24T00:29:58.000Z,10.0
2022-12-24T00:30:13.000Z,10.0
2022-12-24T00:30:28.000Z,10.100000381469727
2022-12-24T00:30:43.000Z,10.100000381469727
2022-12-24T00:30:58.000Z,10.100000381469727
2022-12-24T00:31:13.000Z,10.100000381469727
2022-12-24T00:31:28.000Z,10.100000381469727
2022-12-24T00:31:43.000Z,10.199999809265137
2022-12-24T00:31:58.000Z,10.199999809265137
2022-12-24T00:32:13.000Z,10.199999809265137
2022-12-24T00:32:28.000Z,10.199999809265137
2022-12-24T00:32:43.000Z,10.199999809265137
2022-12-24T00:32:58.000Z,10.199999809265137
2022-12-24T00:33:14.000Z,10.199999809265137
2022-12-24T00:33:28.000Z,10.199999809265137
2022-12-24T00:33:43.000Z,10.300000190734863
2022-12-24T00:33:58.000Z,10.300000190734863
2022-12-24T00:34:13.000Z,10.300000190734863
2022-12-24T00:34:28.000Z,10.300000190734863
2022-12-24T00:34:43.000Z,10.300000190734863
2022-12-24T00:34:58.000Z,10.300000190734863
2022-12-24T00:35:13.000Z,10.300000190734863
2022-12-24T00:35:28.000Z,10.300000190734863
2022-12-24T00:35:43.000Z,10.300000190734863
2022-12-24T00:35:58.000Z,10.300000190734863
2022-12-24T00:36:13.000Z,10.300000190734863
2022-12-24T00:36:28.000Z,10.300000190734863
2022-12-24T00:36:43.000Z,10.300000190734863
2022-12-24T00:36:58.000Z,10.399999618530273
2022-12-24T00:37:13.000Z,10.300000190734863
2022-12-24T00:37:28.000Z,10.300000190734863
2022-12-24T00:37:43.000Z,10.300000190734863
2022-12-24T00:37:58.000Z,10.300000190734863
2022-12-24T00:38:13.000Z,10.399999618530273
2022-12-24T00:38:28.000Z,10.399999618530273
2022-12-24T00:38:43.000Z,10.399999618530273
2022-12-24T00:38:57.000Z,10.399999618530273
2022-12-24T00:39:13.000Z,10.399999618530273
2022-12-24T00:39:28.000Z,10.399999618530273
2022-12-24T00:39:43.000Z,10.399999618530273
2022-12-24T00:39:58.000Z,10.399999618530273
2022-12-24T00:40:13.000Z,10.399999618530273
2022-12-24T00:40:28.000Z,10.399999618530273
2022-12-24T00:40:43.000Z,10.5
2022-12-24T00:40:58.000Z,10.5
2022-12-24T00:41:13.000Z,10.5
2022-12-24T00:41:28.000Z,10.5
2022-12-24T00:41:43.000Z,10.5
2022-12-24T00:41:58.000Z,10.5
2022-12-24T00:42:13.000Z,10.5
2022-12-24T00:42:28.000Z,10.600000381469727
2022-12-24T00:42:43.000Z,10.600000381469727
2022-12-24T00:42:58.000Z,10.600000381469727
2022-12-24T00:43:13.000Z,10.5
2022-12-24T00:43:28.000Z,10.600000381469727
2022-12-24T00:43:43.000Z,10.600000381469727
2022-12-24T00:43:58.000Z,10.600000381469727
2022-12-24T00:44:13.000Z,10.600000381469727
2022-12-24T00:44:28.000Z,10.600000381469727
2022-12-24T00:44:44.000Z,10.600000381469727
2022-12-24T00:44:58.000Z,10.600000381469727
2022-12-24T00:45:13.000Z,10.600000381469727
2022-12-24T00:45:28.000Z,10.600000381469727
2022-12-24T00:45:43.000Z,10.600000381469727
2022-12-24T00:45:58.000Z,10.600000381469727
2022-12-24T00:46:13.000Z,10.600000381469727
2022-12-24T00:46:28.000Z,10.600000381469727
2022-12-24T00:46:43.000Z,10.600000381469727
2022-12-24T00:46:58.000Z,10.600000381469727
2022-12-24T00:47:13.000Z,10.600000381469727
2022-12-24T00:47:28.000Z,10.600000381469727
2022-12-24T00:47:43.000Z,10.600000381469727
2022-12-24T00:47:58.000Z,10.600000381469727
2022-12-24T00:48:13.000Z,10.600000381469727
2022-12-24T00:48:28.000Z,10.699999809265137
2022-12-24T00:48:43.000Z,10.699999809265137
2022-12-24T00:48:58.000Z,10.5
2022-12-24T00:49:13.000Z,10.600000381469727
2022-12-24T00:49:28.000Z,10.699999809265137
2022-12-24T00:49:43.000Z,10.699999809265137
2022-12-24T00:49:58.000Z,10.699999809265137
2022-12-24T00:50:13.000Z,10.699999809265137
2022-12-24T00:50:29.000Z,10.800000190734863
2022-12-24T00:50:43.000Z,10.800000190734863
2022-12-24T00:50:58.000Z,10.800000190734863
2022-12-24T00:51:13.000Z,10.800000190734863
2022-12-24T00:51:28.000Z,10.800000190734863
2022-12-24T00:51:43.000Z,10.800000190734863
2022-12-24T00:51:58.000Z,10.800000190734863
2022-12-24T00:52:13.000Z,10.800000190734863
2022-12-24T00:52:28.000Z,10.800000190734863
2022-12-24T00:52:43.000Z,10.800000190734863
2022-12-24T00:52:58.000Z,10.800000190734863
2022-12-24T00:53:13.000Z,10.899999618530273
2022-12-24T00:53:28.000Z,10.899999618530273
2022-12-24T00:53:43.000Z,10.899999618530273
2022-12-24T00:53:58.000Z,10.899999618530273
2022-12-24T00:54:13.000Z,10.899999618530273
2022-12-24T00:54:28.000Z,10.899999618530273
2022-12-24T00:54:43.000Z,10.899999618530273
2022-12-24T00:54:58.000Z,10.899999618530273
2022-12-24T00:55:13.000Z,10.899999618530273
2022-12-24T00:55:28.000Z,10.899999618530273
2022-12-24T00:55:43.000Z,10.899999618530273
2022-12-24T00:55:58.000Z,10.899999618530273
2022-12-24T00:56:13.000Z,10.899999618530273
2022-12-24T00:56:28.000Z,10.899999618530273
2022-12-24T00:56:43.000Z,10.899999618530273
2022-12-24T00:56:58.000Z,10.899999618530273
2022-12-24T00:57:13.000Z,10.899999618530273
2022-12-24T00:57:28.000Z,10.899999618530273
2022-12-24T00:57:43.000Z,10.899999618530273
2022-12-24T00:57:58.000Z,10.899999618530273
2022-12-24T00:58:13.000Z,10.899999618530273
2022-12-24T00:58:28.000Z,10.899999618530273
2022-12-24T00:58:43.000Z,10.899999618530273
2022-12-24T00:58:58.000Z,10.899999618530273
2022-12-24T00:59:13.000Z,10.899999618530273
2022-12-24T00:59:28.000Z,11.0
2022-12-24T00:59:43.000Z,11.0
2022-12-24T00:59:58.000Z,11.0
2022-12-24T01:00:13.000Z,10.899999618530273
2022-12-24T01:00:28.000Z,10.899999618530273
2022-12-24T01:00:43.000Z,10.899999618530273
2022-12-24T01:00:58.000Z,10.899999618530273
2022-12-24T01:01:13.000Z,10.899999618530273
2022-12-24T01:01:28.000Z,10.899999618530273
2022-12-24T01:01:43.000Z,10.899999618530273
2022-12-24T01:01:58.000Z,10.899999618530273
2022-12-24T01:02:13.000Z,10.899999618530273
2022-12-24T01:02:28.000Z,10.899999618530273
2022-12-24T01:02:43.000Z,10.899999618530273
2022-12-24T01:02:58.000Z,10.899999618530273
2022-12-24T01:03:13.000Z,10.899999618530273
2022-12-24T01:03:28.000Z,10.899999618530273
2022-12-24T01:03:43.000Z,11.0
2022-12-24T01:03:58.000Z,10.899999618530273
2022-12-24T01:04:13.000Z,11.0
2022-12-24T01:04:28.000Z,10.899999618530273
2022-12-24T01:04:43.000Z,11.0
2022-12-24T01:04:58.000Z,11.0
2022-12-24T01:05:13.000Z,11.0
2022-12-24T01:05:28.000Z,11.0
2022-12-24T01:05:43.000Z,11.0
2022-12-24T01:05:58.000Z,11.0
2022-12-24T01:06:13.000Z,11.0
2022-12-24T01:06:28.000Z,11.0
2022-12-24T01:06:43.000Z,11.0
2022-12-24T01:06:58.000Z,11.0
2022-12-24T01:07:13.000Z,11.0
2022-12-24T01:07:28.000Z,11.0
2022-12-24T01:07:43.000Z,11.0
2022-12-24T01:07:58.000Z,11.0
2022-12-24T01:08:13.000Z,11.0
2022-12-24T01:08:28.000Z,11.0
2022-12-24T01:08:43.000Z,11.0
2022-12-24T01:08:58.000Z,11.0
2022-12-24T01:09:13.000Z,11.0
2022-12-24T01:09:28.000Z,11.0
2022-12-24T01:09:43.000Z,11.0
2022-12-24T01:09:58.000Z,11.0
2022-12-24T01:10:13.000Z,11.0
2022-12-24T01:10:28.000Z,11.0
2022-12-24T01:10:43.000Z,11.0
2022-12-24T01:10:58.000Z,11.0
2022-12-24T01:11:13.000Z,10.899999618530273
2022-12-24T01:11:28.000Z,10.899999618530273
2022-12-24T01:11:43.000Z,10.899999618530273
2022-12-24T01:11:58.000Z,10.899999618530273
2022-12-24T01:12:13.000Z,10.899999618530273
2022-12-24T01:12:28.000Z,10.899999618530273
2022-12-24T01:12:43.000Z,10.800000190734863
2022-12-24T01:12:58.000Z,10.800000190734863
2022-12-24T01:13:13.000Z,10.800000190734863
2022-12-24T01:13:28.000Z,10.800000190734863
2022-12-24T01:13:44.000Z,10.800000190734863
2022-12-24T01:13:58.000Z,10.800000190734863
2022-12-24T01:14:13.000Z,10.800000190734863
2022-12-24T01:14:28.000Z,10.800000190734863
2022-12-24T01:14:43.000Z,10.800000190734863
2022-12-24T01:14:58.000Z,10.800000190734863
2022-12-24T01:15:13.000Z,10.800000190734863
2022-12-24T01:15:28.000Z,10.800000190734863
2022-12-24T01:15:43.000Z,10.800000190734863
2022-12-24T01:15:58.000Z,10.800000190734863
2022-12-24T01:16:13.000Z,10.800000190734863
2022-12-24T01:16:28.000Z,10.699999809265137
2022-12-24T01:16:43.000Z,10.699999809265137
2022-12-24T01:16:58.000Z,10.699999809265137
2022-12-24T01:17:13.000Z,10.699999809265137
2022-12-24T01:17:28.000Z,10.699999809265137
2022-12-24T01:17:43.000Z,10.699999809265137
2022-12-24T01:17:58.000Z,10.699999809265137
2022-12-24T01:18:13.000Z,10.699999809265137
2022-12-24T01:18:28.000Z,10.699999809265137
2022-12-24T01:18:43.000Z,10.699999809265137
2022-12-24T01:18:58.000Z,10.699999809265137
2022-12-24T01:19:13.000Z,10.699999809265137
2022-12-24T01:19:28.000Z,10.699999809265137
2022-12-24T01:19:43.000Z,10.699999809265137
2022-12-24T01:19:58.000Z,10.699999809265137
2022-12-24T01:20:13.000Z,10.699999809265137
2022-12-24T01:20:28.000Z,10.699999809265137
2022-12-24T01:20:43.000Z,10.699999809265137
2022-12-24T01:20:58.000Z,10.699999809265137
2022-12-24T01:21:13.000Z,10.699999809265137
2022-12-24T01:21:28.000Z,10.699999809265137
2022-12-24T01:21:43.000Z,10.699999809265137
2022-12-24T01:21:58.000Z,10.699999809265137
2022-12-24T01:22:13.000Z,10.699999809265137
2022-12-24T01:22:28.000Z,10.699999809265137
2022-12-24T01:22:43.000Z,10.699999809265137
2022-12-24T01:22:58.000Z,10.699999809265137
2022-12-24T01:23:13.000Z,10.699999809265137
2022-12-24T01:23:28.000Z,10.699999809265137
2022-12-24T01:23:43.000Z,10.699999809265137
2022-12-24T01:23:58.000Z,10.600000381469727
2022-12-24T01:24:13.000Z,10.600000381469727
2022-12-24T01:24:28.000Z,10.600000381469727
2022-12-24T01:24:43.000Z,10.600000381469727
2022-12-24T01:24:58.000Z,10.600000381469727
2022-12-24T01:25:14.000Z,10.600000381469727
2022-12-24T01:25:28.000Z,10.699999809265137
2022-12-24T01:25:43.000Z,10.600000381469727
2022-12-24T01:25:58.000Z,10.699999809265137
2022-12-24T01:26:13.000Z,10.699999809265137
2022-12-24T01:26:28.000Z,10.699999809265137
2022-12-24T01:26:43.000Z,10.699999809265137
2022-12-24T01:26:58.000Z,10.699999809265137
2022-12-24T01:27:13.000Z,10.699999809265137
2022-12-24T01:27:28.000Z,10.699999809265137
2022-12-24T01:27:43.000Z,10.699999809265137
2022-12-24T01:27:58.000Z,10.699999809265137
2022-12-24T01:28:13.000Z,10.699999809265137
2022-12-24T01:28:28.000Z,10.699999809265137
2022-12-24T01:28:43.000Z,10.699999809265137
2022-12-24T01:28:58.000Z,10.699999809265137
2022-12-24T01:29:13.000Z,10.699999809265137
2022-12-24T01:29:28.000Z,10.699999809265137
2022-12-24T01:29:43.000Z,10.699999809265137
2022-12-24T01:29:58.000Z,10.699999809265137
2022-12-24T01:30:13.000Z,10.699999809265137
2022-12-24T01:30:28.000Z,10.699999809265137
2022-12-24T01:30:43.000Z,10.699999809265137
2022-12-24T01:30:58.000Z,10.699999809265137
2022-12-24T01:31:13.000Z,10.699999809265137
2022-12-24T01:31:28.000Z,10.699999809265137
2022-12-24T01:31:43.000Z,10.699999809265137
2022-12-24T01:31:58.000Z,10.699999809265137
2022-12-24T01:32:13.000Z,10.699999809265137
2022-12-24T01:32:28.000Z,10.699999809265137
2022-12-24T01:32:43.000Z,10.699999809265137
2022-12-24T01:32:58.000Z,10.699999809265137
2022-12-24T01:33:13.000Z,10.699999809265137
2022-12-24T01:33:28.000Z,10.699999809265137
2022-12-24T01:33:43.000Z,10.699999809265137
2022-12-24T01:33:58.000Z,10.800000190734863
2022-12-24T01:34:13.000Z,10.699999809265137
2022-12-24T01:34:28.000Z,10.800000190734863
2022-12-24T01:34:43.000Z,10.800000190734863
2022-12-24T01:34:58.000Z,10.800000190734863
2022-12-24T01:35:13.000Z,10.800000190734863
2022-12-24T01:35:28.000Z,10.800000190734863
2022-12-24T01:35:43.000Z,10.800000190734863
2022-12-24T01:35:58.000Z,10.800000190734863
2022-12-24T01:36:13.000Z,10.800000190734863
2022-12-24T01:36:28.000Z,10.800000190734863
2022-12-24T01:36:43.000Z,10.800000190734863
2022-12-24T01:36:58.000Z,10.800000190734863
2022-12-24T01:37:13.000Z,10.699999809265137
2022-12-24T01:37:28.000Z,10.800000190734863
2022-12-24T01:37:43.000Z,10.800000190734863
2022-12-24T01:37:58.000Z,10.800000190734863
2022-12-24T01:38:13.000Z,10.800000190734863
2022-12-24T01:38:28.000Z,10.800000190734863
2022-12-24T01:38:43.000Z,10.800000190734863
2022-12-24T01:38:58.000Z,10.800000190734863
2022-12-24T01:39:13.000Z,10.699999809265137
2022-12-24T01:39:28.000Z,10.699999809265137
2022-12-24T01:39:43.000Z,10.800000190734863
2022-12-24T01:39:58.000Z,10.800000190734863
2022-12-24T01:40:13.000Z,10.699999809265137
2022-12-24T01:40:28.000Z,10.699999809265137
2022-12-24T01:40:43.000Z,10.699999809265137
2022-12-24T01:40:58.000Z,10.699999809265137
2022-12-24T01:41:13.000Z,10.699999809265137
2022-12-24T01:41:28.000Z,10.800000190734863
2022-12-24T01:41:43.000Z,10.800000190734863
2022-12-24T01:41:58.000Z,10.800000190734863
2022-12-24T01:42:13.000Z,10.800000190734863
2022-12-24T01:42:28.000Z,10.800000190734863
2022-12-24T01:42:43.000Z,10.800000190734863
2022-12-24T01:42:58.000Z,10.800000190734863
2022-12-24T01:43:13.000Z,10.800000190734863
2022-12-24T01:43:28.000Z,10.800000190734863
2022-12-24T01:43:43.000Z,10.800000190734863
2022-12-24T01:43:58.000Z,10.800000190734863
2022-12-24T01:44:13.000Z,10.800000190734863
2022-12-24T01:44:28.000Z,10.800000190734863
2022-12-24T01:44:43.000Z,10.800000190734863
2022-12-24T01:44:58.000Z,10.800000190734863
2022-12-24T01:45:13.000Z,10.800000190734863
2022-12-24T01:45:28.000Z,10.800000190734863
2022-12-24T01:45:43.000Z,10.800000190734863
2022-12-24T01:45:58.000Z,10.800000190734863
2022-12-24T01:46:13.000Z,10.800000190734863
2022-12-24T01:46:28.000Z,10.800000190734863
2022-12-24T01:46:43.000Z,10.699999809265137
2022-12-24T01:46:58.000Z,10.699999809265137
2022-12-24T01:47:13.000Z,10.699999809265137
2022-12-24T01:47:28.000Z,10.699999809265137
2022-12-24T01:47:43.000Z,10.699999809265137
2022-12-24T01:47:58.000Z,10.699999809265137
2022-12-24T01:48:13.000Z,10.699999809265137
2022-12-24T01:48:28.000Z,10.699999809265137
2022-12-24T01:48:43.000Z,10.699999809265137
2022-12-24T01:48:58.000Z,10.699999809265137
2022-12-24T01:49:13.000Z,10.699999809265137
2022-12-24T01:49:28.000Z,10.699999809265137
2022-12-24T01:49:43.000Z,10.699999809265137
2022-12-24T01:49:58.000Z,10.699999809265137
2022-12-24T01:50:13.000Z,10.699999809265137
2022-12-24T01:50:28.000Z,10.699999809265137
2022-12-24T01:50:43.000Z,10.699999809265137
2022-12-24T01:50:58.000Z,10.699999809265137
2022-12-24T01:51:13.000Z,10.699999809265137
2022-12-24T01:51:28.000Z,10.699999809265137
2022-12-24T01:51:43.000Z,10.699999809265137
2022-12-24T01:51:58.000Z,10.699999809265137
2022-12-24T01:52:13.000Z,10.699999809265137
2022-12-24T01:52:28.000Z,10.699999809265137
2022-12-24T01:52:43.000Z,10.699999809265137
2022-12-24T01:52:58.000Z,10.699999809265137
2022-12-24T01:53:13.000Z,10.699999809265137
2022-12-24T01:53:28.000Z,10.699999809265137
2022-12-24T01:53:43.000Z,10.699999809265137
2022-12-24T01:53:58.000Z,10.699999809265137
2022-12-24T01:54:13.000Z,10.699999809265137
2022-12-24T01:54:28.000Z,10.699999809265137
2022-12-24T01:54:43.000Z,10.699999809265137
2022-12-24T01:54:58.000Z,10.699999809265137
2022-12-24T01:55:13.000Z,10.699999809265137
2022-12-24T01:55:28.000Z,10.699999809265137
2022-12-24T01:55:43.000Z,10.699999809265137
2022-12-24T01:55:58.000Z,10.699999809265137
2022-12-24T01:56:13.000Z,10.800000190734863
2022-12-24T01:56:28.000Z,10.800000190734863
2022-12-24T01:56:43.000Z,10.800000190734863
2022-12-24T01:56:58.000Z,10.800000190734863
2022-12-24T01:57:13.000Z,10.800000190734863
2022-12-24T01:57:28.000Z,10.800000190734863
2022-12-24T01:57:43.000Z,10.800000190734863
2022-12-24T01:57:58.000Z,10.899999618530273
2022-12-24T01:58:13.000Z,10.800000190734863
2022-12-24T01:58:28.000Z,10.800000190734863
2022-12-24T01:58:43.000Z,10.800000190734863
2022-12-24T01:58:58.000Z,10.800000190734863
2022-12-24T01:59:13.000Z,10.899999618530273
2022-12-24T01:59:28.000Z,10.800000190734863
2022-12-24T01:59:43.000Z,10.800000190734863
2022-12-24T01:59:58.000Z,10.800000190734863
2022-12-24T02:00:13.000Z,10.800000190734863
2022-12-24T02:00:28.000Z,10.800000190734863
2022-12-24T02:00:43.000Z,10.800000190734863
2022-12-24T02:00:58.000Z,10.800000190734863
2022-12-24T02:01:13.000Z,10.800000190734863
2022-12-24T02:01:28.000Z,10.699999809265137
2022-12-24T02:01:43.000Z,10.800000190734863
2022-12-24T02:01:58.000Z,10.800000190734863
2022-12-24T02:02:13.000Z,10.800000190734863
2022-12-24T02:02:28.000Z,10.699999809265137
2022-12-24T02:02:43.000Z,10.800000190734863
2022-12-24T02:02:58.000Z,10.800000190734863
2022-12-24T02:03:13.000Z,10.800000190734863
2022-12-24T02:03:28.000Z,10.800000190734863
2022-12-24T02:03:43.000Z,10.800000190734863
2022-12-24T02:03:58.000Z,10.800000190734863
2022-12-24T02:04:13.000Z,10.800000190734863
2022-12-24T02:04:28.000Z,10.800000190734863
2022-12-24T02:04:43.000Z,10.800000190734863
2022-12-24T02:04:58.000Z,10.600000381469727
2022-12-24T02:05:12.000Z,10.699999809265137
2022-12-24T02:05:28.000Z,10.699999809265137
2022-12-24T02:05:43.000Z,10.699999809265137
2022-12-24T02:05:58.000Z,10.800000190734863
2022-12-24T02:06:13.000Z,10.800000190734863
2022-12-24T02:06:28.000Z,10.800000190734863
2022-12-24T02:06:43.000Z,10.800000190734863
2022-12-24T02:06:58.000Z,10.800000190734863
2022-12-24T02:07:13.000Z,10.699999809265137
2022-12-24T02:07:28.000Z,10.699999809265137
2022-12-24T02:07:43.000Z,10.699999809265137
2022-12-24T02:07:58.000Z,10.699999809265137
2022-12-24T02:08:13.000Z,10.699999809265137
2022-12-24T02:08:28.000Z,10.800000190734863
2022-12-24T02:08:43.000Z,10.699999809265137
2022-12-24T02:08:58.000Z,10.699999809265137
2022-12-24T02:09:13.000Z,10.699999809265137
2022-12-24T02:09:28.000Z,10.699999809265137
2022-12-24T02:09:43.000Z,10.699999809265137
2022-12-24T02:09:58.000Z,10.699999809265137
2022-12-24T02:10:13.000Z,10.699999809265137
2022-12-24T02:10:28.000Z,10.800000190734863
2022-12-24T02:10:43.000Z,10.800000190734863
2022-12-24T02:10:58.000Z,10.699999809265137
2022-12-24T02:11:13.000Z,10.699999809265137
2022-12-24T02:11:28.000Z,10.699999809265137
2022-12-24T02:11:43.000Z,10.699999809265137
2022-12-24T02:11:58.000Z,10.699999809265137
2022-12-24T02:12:13.000Z,10.699999809265137
2022-12-24T02:12:28.000Z,10.699999809265137
2022-12-24T02:12:43.000Z,10.699999809265137
2022-12-24T02:12:58.000Z,10.699999809265137
2022-12-24T02:13:13.000Z,10.800000190734863
2022-12-24T02:13:28.000Z,10.800000190734863
2022-12-24T02:13:43.000Z,10.800000190734863
2022-12-24T02:13:58.000Z,10.800000190734863
2022-12-24T02:14:13.000Z,10.699999809265137
2022-12-24T02:14:28.000Z,10.800000190734863
2022-12-24T02:14:43.000Z,10.800000190734863
2022-12-24T02:14:58.000Z,10.800000190734863
2022-12-24T02:15:13.000Z,10.899999618530273
2022-12-24T02:15:28.000Z,10.899999618530273
2022-12-24T02:15:43.000Z,10.899999618530273
2022-12-24T02:15:58.000Z,10.800000190734863
2022-12-24T02:16:13.000Z,10.800000190734863
2022-12-24T02:16:28.000Z,10.899999618530273
2022-12-24T02:16:43.000Z,10.800000190734863
2022-12-24T02:16:58.000Z,10.800000190734863
2022-12-24T02:17:13.000Z,10.800000190734863
2022-12-24T02:17:28.000Z,10.800000190734863
2022-12-24T02:17:43.000Z,10.800000190734863
2022-12-24T02:17:58.000Z,10.800000190734863
2022-12-24T02:18:13.000Z,10.800000190734863
2022-12-24T02:18:28.000Z,10.800000190734863
2022-12-24T02:18:43.000Z,10.800000190734863
2022-12-24T02:18:58.000Z,10.800000190734863
2022-12-24T02:19:13.000Z,10.800000190734863
2022-12-24T02:19:28.000Z,10.800000190734863
2022-12-24T02:19:43.000Z,10.800000190734863
2022-12-24T02:19:58.000Z,10.800000190734863
2022-12-24T02:20:13.000Z,10.699999809265137
2022-12-24T02:20:28.000Z,10.699999809265137
2022-12-24T02:20:43.000Z,10.699999809265137
2022-12-24T02:20:58.000Z,10.699999809265137
2022-12-24T02:21:13.000Z,10.699999809265137
2022-12-24T02:21:28.000Z,10.699999809265137